Time,TemperatureF,DewpointF,PressureIn,WindDirection,WindDirectionDegrees,WindSpeedMPH,WindSpeedGustMPH,Humidity,HourlyPrecipIn,Conditions,Clouds,dailyrainin,SoftwareType,DateUTC
2013-11-22 00:02:00,41.0,41.0,-100.00,WNW,290,3.0,16.0,99,-99.99,,,-99.99,,2013-11-22 00:02:00,
2013-11-22 00:11:00,41.0,41.0,-100.00,WNW,290,3.0,16.0,99,-99.99,,,-99.99,,2013-11-22 00:11:00,
2013-11-22 00:22:00,45.0,45.0,-100.00,South,190,9.0,24.0,99,-99.99,,,-99.99,,2013-11-22 00:22:00,
2013-11-22 00:32:00,45.0,45.0,-100.00,South,190,9.0,24.0,99,-99.99,,,-99.99,,2013-11-22 00:32:00,
2013-11-22 00:42:00,45.0,45.0,-100.00,South,190,9.0,24.0,99,-99.99,,,-99.99,,2013-11-22 00:42:00,
2013-11-22 00:52:00,45.0,45.0,-100.00,SSW,195,15.0,30.0,99,-99.99,,,-99.99,,2013-11-22 00:52:00,
2013-11-22 01:01:00,45.0,45.0,-100.00,SSW,195,15.0,30.0,99,-99.99,,,-99.99,,2013-11-22 01:01:00,
2013-11-22 01:12:00,45.0,45.0,-100.00,SSW,195,15.0,30.0,99,-99.99,,,-99.99,,2013-11-22 01:12:00,
2013-11-22 01:22:00,45.0,45.0,-100.00,South,180,16.0,31.0,99,-99.99,,,-99.99,,2013-11-22 01:22:00,
2013-11-22 01:32:00,45.0,45.0,-100.00,South,180,16.0,31.0,99,-99.99,,,-99.99,,2013-11-22 01:32:00,
2013-11-22 01:42:00,45.0,45.0,-100.00,South,180,16.0,31.0,99,-99.99,,,-99.99,,2013-11-22 01:42:00,
2013-11-22 01:52:00,45.0,45.0,-100.00,SSW,205,17.0,37.0,99,-99.99,,,-99.99,,2013-11-22 01:52:00,
2013-11-22 02:02:00,45.0,45.0,-100.00,SSW,205,17.0,37.0,99,-99.99,,,-99.99,,2013-11-22 02:02:00,
2013-11-22 02:11:00,45.0,45.0,-100.00,SSW,205,17.0,37.0,99,-99.99,,,-99.99,,2013-11-22 02:11:00,
2013-11-22 02:21:00,45.0,45.0,-100.00,SSE,160,14.0,23.0,98,-99.99,,,-99.99,,2013-11-22 02:21:00,
2013-11-22 02:32:00,45.0,45.0,-100.00,SSE,160,14.0,23.0,98,-99.99,,,-99.99,,2013-11-22 02:32:00,
2013-11-22 02:42:00,45.0,45.0,-100.00,SSE,160,14.0,23.0,98,-99.99,,,-99.99,,2013-11-22 02:42:00,
2013-11-22 02:53:00,45.0,45.0,-100.00,South,185,13.0,32.0,98,-99.99,,,-99.99,,2013-11-22 02:53:00,
2013-11-22 03:02:00,45.0,45.0,-100.00,South,185,13.0,32.0,98,-99.99,,,-99.99,,2013-11-22 03:02:00,
2013-11-22 03:11:00,45.0,45.0,-100.00,South,185,13.0,32.0,98,-99.99,,,-99.99,,2013-11-22 03:11:00,
2013-11-22 03:21:00,45.0,45.0,-100.00,South,185,12.0,30.0,98,-99.99,,,-99.99,,2013-11-22 03:21:00,
2013-11-22 03:33:00,45.0,45.0,-100.00,South,185,12.0,30.0,98,-99.99,,,-99.99,,2013-11-22 03:33:00,
2013-11-22 03:43:00,45.0,45.0,-100.00,South,185,12.0,30.0,98,-99.99,,,-99.99,,2013-11-22 03:43:00,
2013-11-22 03:54:00,45.0,44.0,-100.00,South,180,12.0,28.0,98,-99.99,,,-99.99,,2013-11-22 03:54:00,
2013-11-22 04:03:00,45.0,44.0,-100.00,South,180,12.0,28.0,98,-99.99,,,-99.99,,2013-11-22 04:03:00,
2013-11-22 04:13:00,45.0,44.0,-100.00,South,180,12.0,28.0,98,-99.99,,,-99.99,,2013-11-22 04:13:00,
2013-11-22 04:23:00,45.0,44.0,-100.00,SW,215,16.0,26.0,98,-99.99,,,-99.99,,2013-11-22 04:23:00,
2013-11-22 04:33:00,45.0,44.0,-100.00,SW,215,16.0,26.0,98,-99.99,,,-99.99,,2013-11-22 04:33:00,
2013-11-22 04:43:00,45.0,44.0,-100.00,SW,215,16.0,26.0,98,-99.99,,,-99.99,,2013-11-22 04:43:00,
2013-11-22 04:52:00,44.0,44.0,-100.00,SW,220,14.0,25.0,98,-99.99,,,-99.99,,2013-11-22 04:52:00,
2013-11-22 05:02:00,44.0,44.0,-100.00,SW,220,14.0,25.0,98,-99.99,,,-99.99,,2013-11-22 05:02:00,
2013-11-22 05:12:00,44.0,44.0,-100.00,SW,220,14.0,25.0,98,-99.99,,,-99.99,,2013-11-22 05:12:00,
2013-11-22 05:22:00,44.0,44.0,-100.00,WSW,240,16.0,26.0,99,-99.99,,,-99.99,,2013-11-22 05:22:00,
2013-11-22 05:32:00,44.0,44.0,-100.00,WSW,240,16.0,26.0,99,-99.99,,,-99.99,,2013-11-22 05:32:00,
2013-11-22 05:43:00,44.0,44.0,-100.00,WSW,240,16.0,26.0,99,-99.99,,,-99.99,,2013-11-22 05:43:00,
2013-11-22 05:52:00,44.0,44.0,-100.00,SW,225,15.0,23.0,99,-99.99,,,-99.99,,2013-11-22 05:52:00,
2013-11-22 06:02:00,44.0,44.0,-100.00,SW,225,15.0,23.0,99,-99.99,,,-99.99,,2013-11-22 06:02:00,
2013-11-22 06:12:00,44.0,44.0,-100.00,SW,225,15.0,23.0,99,-99.99,,,-99.99,,2013-11-22 06:12:00,
2013-11-22 06:21:00,43.0,43.0,-100.00,SW,215,15.0,26.0,99,-99.99,,,-99.99,,2013-11-22 06:21:00,
2013-11-22 06:32:00,43.0,43.0,-100.00,SW,215,15.0,26.0,99,-99.99,,,-99.99,,2013-11-22 06:32:00,
2013-11-22 06:42:00,43.0,43.0,-100.00,SW,215,15.0,26.0,99,-99.99,,,-99.99,,2013-11-22 06:42:00,
2013-11-22 06:52:00,43.0,43.0,-100.00,SW,215,18.0,24.0,99,-99.99,,,-99.99,,2013-11-22 06:52:00,
2013-11-22 07:02:00,43.0,43.0,-100.00,SW,215,18.0,24.0,99,-99.99,,,-99.99,,2013-11-22 07:02:00,
2013-11-22 07:12:00,43.0,43.0,-100.00,SW,215,18.0,24.0,99,-99.99,,,-99.99,,2013-11-22 07:12:00,
2013-11-22 07:21:00,43.0,42.0,-100.00,SW,220,18.0,26.0,99,-99.99,,,-99.99,,2013-11-22 07:21:00,
2013-11-22 07:32:00,43.0,42.0,-100.00,SW,220,18.0,26.0,99,-99.99,,,-99.99,,2013-11-22 07:32:00,
2013-11-22 07:42:00,43.0,42.0,-100.00,SW,220,18.0,26.0,99,-99.99,,,-99.99,,2013-11-22 07:42:00,
2013-11-22 07:52:00,43.0,42.0,-100.00,SW,225,18.0,24.0,99,-99.99,,,-99.99,,2013-11-22 07:52:00,
2013-11-22 08:01:00,43.0,42.0,-100.00,SW,225,18.0,24.0,99,-99.99,,,-99.99,,2013-11-22 08:01:00,
2013-11-22 08:11:00,43.0,42.0,-100.00,SW,225,18.0,24.0,99,-99.99,,,-99.99,,2013-11-22 08:11:00,
2013-11-22 08:21:00,42.0,42.0,-100.00,South,185,15.0,21.0,99,-99.99,,,-99.99,,2013-11-22 08:21:00,
2013-11-22 08:32:00,42.0,42.0,-100.00,South,185,15.0,21.0,99,-99.99,,,-99.99,,2013-11-22 08:32:00,
2013-11-22 08:42:00,42.0,42.0,-100.00,South,185,15.0,21.0,99,-99.99,,,-99.99,,2013-11-22 08:42:00,
2013-11-22 08:52:00,39.0,38.0,-100.00,SSE,160,20.0,29.0,99,-99.99,,,-99.99,,2013-11-22 08:52:00,
2013-11-22 09:02:00,39.0,38.0,-100.00,SSE,160,20.0,29.0,99,-99.99,,,-99.99,,2013-11-22 09:02:00,
2013-11-22 09:11:00,39.0,38.0,-100.00,SSE,160,20.0,29.0,99,-99.99,,,-99.99,,2013-11-22 09:11:00,
2013-11-22 09:21:00,39.0,38.0,-100.00,South,185,14.0,22.0,99,-99.99,,,-99.99,,2013-11-22 09:21:00,
2013-11-22 09:34:00,39.0,38.0,-100.00,South,185,14.0,22.0,99,-99.99,,,-99.99,,2013-11-22 09:34:00,
2013-11-22 09:43:00,39.0,38.0,-100.00,South,185,14.0,22.0,99,-99.99,,,-99.99,,2013-11-22 09:43:00,
2013-11-22 09:53:00,38.0,38.0,-100.00,South,185,11.0,22.0,99,-99.99,,,-99.99,,2013-11-22 09:53:00,
2013-11-22 10:03:00,38.0,38.0,-100.00,South,185,11.0,22.0,99,-99.99,,,-99.99,,2013-11-22 10:03:00,
2013-11-22 10:13:00,38.0,38.0,-100.00,South,185,11.0,22.0,99,-99.99,,,-99.99,,2013-11-22 10:13:00,
2013-11-22 10:23:00,38.0,38.0,-100.00,South,185,4.0,14.0,99,-99.99,,,-99.99,,2013-11-22 10:23:00,
2013-11-22 10:33:00,38.0,38.0,-100.00,South,185,4.0,14.0,99,-99.99,,,-99.99,,2013-11-22 10:33:00,
2013-11-22 10:42:00,38.0,38.0,-100.00,South,185,4.0,14.0,99,-99.99,,,-99.99,,2013-11-22 10:42:00,
2013-11-22 10:52:00,38.0,38.0,-100.00,SE,135,4.0,9.0,99,-99.99,,,-99.99,,2013-11-22 10:52:00,
2013-11-22 11:02:00,38.0,38.0,-100.00,SE,135,4.0,9.0,99,-99.99,,,-99.99,,2013-11-22 11:02:00,
2013-11-22 11:12:00,38.0,38.0,-100.00,SE,135,4.0,9.0,99,-99.99,,,-99.99,,2013-11-22 11:12:00,
2013-11-22 11:22:00,38.0,38.0,-100.00,SSE,150,4.0,9.0,99,-99.99,,,-99.99,,2013-11-22 11:22:00,
2013-11-22 11:33:00,38.0,38.0,-100.00,SSE,150,4.0,9.0,99,-99.99,,,-99.99,,2013-11-22 11:33:00,
2013-11-22 11:42:00,38.0,38.0,-100.00,SSE,150,4.0,9.0,99,-99.99,,,-99.99,,2013-11-22 11:42:00,
2013-11-22 11:52:00,38.0,38.0,-100.00,SSE,160,4.0,5.0,99,-99.99,,,-99.99,,2013-11-22 11:52:00,
2013-11-22 12:02:00,38.0,38.0,-100.00,SSE,160,4.0,5.0,99,-99.99,,,-99.99,,2013-11-22 12:02:00,
2013-11-22 12:12:00,38.0,38.0,-100.00,SSE,160,4.0,5.0,99,-99.99,,,-99.99,,2013-11-22 12:12:00,
2013-11-22 12:21:00,38.0,38.0,-100.00,South,175,6.0,8.0,99,-99.99,,,-99.99,,2013-11-22 12:21:00,
2013-11-22 12:32:00,38.0,38.0,-100.00,South,175,6.0,8.0,99,-99.99,,,-99.99,,2013-11-22 12:32:00,
2013-11-22 12:42:00,38.0,38.0,-100.00,South,175,6.0,8.0,99,-99.99,,,-99.99,,2013-11-22 12:42:00,
2013-11-22 12:52:00,37.0,37.0,-100.00,SW,215,7.0,12.0,99,-99.99,,,-99.99,,2013-11-22 12:52:00,
2013-11-22 13:01:00,37.0,37.0,-100.00,SW,215,7.0,12.0,99,-99.99,,,-99.99,,2013-11-22 13:01:00,
2013-11-22 13:11:00,37.0,37.0,-100.00,SW,215,7.0,12.0,99,-99.99,,,-99.99,,2013-11-22 13:11:00,
2013-11-22 13:22:00,37.0,35.0,-100.00,SW,235,12.0,17.0,94,-99.99,,,-99.99,,2013-11-22 13:22:00,
2013-11-22 13:32:00,37.0,35.0,-100.00,SW,235,12.0,17.0,94,-99.99,,,-99.99,,2013-11-22 13:32:00,
2013-11-22 13:42:00,37.0,35.0,-100.00,SW,235,12.0,17.0,94,-99.99,,,-99.99,,2013-11-22 13:42:00,
2013-11-22 13:52:00,37.0,33.0,-100.00,South,175,12.0,16.0,83,-99.99,,,-99.99,,2013-11-22 13:52:00,
2013-11-22 14:02:00,37.0,33.0,-100.00,South,175,12.0,16.0,83,-99.99,,,-99.99,,2013-11-22 14:02:00,
2013-11-22 14:11:00,37.0,33.0,-100.00,South,175,12.0,16.0,83,-99.99,,,-99.99,,2013-11-22 14:11:00,
2013-11-22 14:22:00,36.0,29.0,-100.00,SSW,200,11.0,19.0,76,-99.99,,,-99.99,,2013-11-22 14:22:00,
2013-11-22 14:32:00,36.0,29.0,-100.00,SSW,200,11.0,19.0,76,-99.99,,,-99.99,,2013-11-22 14:32:00,
2013-11-22 14:42:00,36.0,29.0,-100.00,SSW,200,11.0,19.0,76,-99.99,,,-99.99,,2013-11-22 14:42:00,
2013-11-22 14:52:00,36.0,27.0,-100.00,SSW,200,11.0,14.0,69,-99.99,,,-99.99,,2013-11-22 14:52:00,
2013-11-22 15:02:00,36.0,27.0,-100.00,SSW,200,11.0,14.0,69,-99.99,,,-99.99,,2013-11-22 15:02:00,
2013-11-22 15:11:00,36.0,27.0,-100.00,SSW,200,11.0,14.0,69,-99.99,,,-99.99,,2013-11-22 15:11:00,
2013-11-22 15:22:00,35.0,24.0,-100.00,SSW,205,14.0,21.0,63,-99.99,,,-99.99,,2013-11-22 15:22:00,
2013-11-22 15:34:00,35.0,24.0,-100.00,SSW,205,14.0,21.0,63,-99.99,,,-99.99,,2013-11-22 15:34:00,
2013-11-22 15:43:00,35.0,24.0,-100.00,SSW,205,14.0,21.0,63,-99.99,,,-99.99,,2013-11-22 15:43:00,
2013-11-22 15:54:00,34.0,22.0,-100.00,SSW,205,14.0,19.0,60,-99.99,,,-99.99,,2013-11-22 15:54:00,
2013-11-22 16:03:00,34.0,22.0,-100.00,SSW,205,14.0,19.0,60,-99.99,,,-99.99,,2013-11-22 16:03:00,
2013-11-22 16:13:00,34.0,22.0,-100.00,SSW,205,14.0,19.0,60,-99.99,,,-99.99,,2013-11-22 16:13:00,
2013-11-22 16:23:00,33.0,20.0,-100.00,SSW,205,14.0,21.0,56,-99.99,,,-99.99,,2013-11-22 16:23:00,
2013-11-22 16:33:00,33.0,20.0,-100.00,SSW,205,14.0,21.0,56,-99.99,,,-99.99,,2013-11-22 16:33:00,
2013-11-22 16:43:00,33.0,20.0,-100.00,SSW,205,14.0,21.0,56,-99.99,,,-99.99,,2013-11-22 16:43:00,
2013-11-22 16:52:00,32.0,19.0,-100.00,South,180,11.0,19.0,56,-99.99,,,-99.99,,2013-11-22 16:52:00,
2013-11-22 17:03:00,32.0,19.0,-100.00,South,180,11.0,19.0,56,-99.99,,,-99.99,,2013-11-22 17:03:00,
2013-11-22 17:12:00,32.0,19.0,-100.00,South,180,11.0,19.0,56,-99.99,,,-99.99,,2013-11-22 17:12:00,
2013-11-22 17:22:00,32.0,18.0,-100.00,SW,225,13.0,19.0,55,-99.99,,,-99.99,,2013-11-22 17:22:00,
2013-11-22 17:34:00,32.0,18.0,-100.00,SW,225,13.0,19.0,55,-99.99,,,-99.99,,2013-11-22 17:34:00,
2013-11-22 17:42:00,32.0,18.0,-100.00,SW,225,13.0,19.0,55,-99.99,,,-99.99,,2013-11-22 17:42:00,
2013-11-22 17:52:00,31.0,17.0,-100.00,South,185,12.0,17.0,53,-99.99,,,-99.99,,2013-11-22 17:52:00,
2013-11-22 18:02:00,31.0,17.0,-100.00,South,185,12.0,17.0,53,-99.99,,,-99.99,,2013-11-22 18:02:00,
2013-11-22 18:12:00,31.0,17.0,-100.00,South,185,12.0,17.0,53,-99.99,,,-99.99,,2013-11-22 18:12:00,
2013-11-22 18:21:00,31.0,16.0,-100.00,SSW,200,16.0,24.0,53,-99.99,,,-99.99,,2013-11-22 18:21:00,
2013-11-22 18:32:00,31.0,16.0,-100.00,SSW,200,16.0,24.0,53,-99.99,,,-99.99,,2013-11-22 18:32:00,
2013-11-22 18:42:00,31.0,16.0,-100.00,SSW,200,16.0,24.0,53,-99.99,,,-99.99,,2013-11-22 18:42:00,
2013-11-22 18:52:00,30.0,16.0,-100.00,South,185,14.0,27.0,54,-99.99,,,-99.99,,2013-11-22 18:52:00,
2013-11-22 19:01:00,30.0,16.0,-100.00,South,185,14.0,27.0,54,-99.99,,,-99.99,,2013-11-22 19:01:00,
2013-11-22 19:11:00,30.0,16.0,-100.00,South,185,14.0,27.0,54,-99.99,,,-99.99,,2013-11-22 19:11:00,
2013-11-22 19:21:00,30.0,16.0,-100.00,SSW,205,16.0,21.0,55,-99.99,,,-99.99,,2013-11-22 19:21:00,
2013-11-22 19:32:00,30.0,16.0,-100.00,SSW,205,16.0,21.0,55,-99.99,,,-99.99,,2013-11-22 19:32:00,
2013-11-22 19:42:00,30.0,16.0,-100.00,SSW,205,16.0,21.0,55,-99.99,,,-99.99,,2013-11-22 19:42:00,
2013-11-22 19:52:00,29.0,15.0,-100.00,South,190,13.0,21.0,54,-99.99,,,-99.99,,2013-11-22 19:52:00,
2013-11-22 20:01:00,29.0,15.0,-100.00,South,190,13.0,21.0,54,-99.99,,,-99.99,,2013-11-22 20:01:00,
2013-11-22 20:11:00,29.0,15.0,-100.00,South,190,13.0,21.0,54,-99.99,,,-99.99,,2013-11-22 20:11:00,
2013-11-22 20:21:00,29.0,15.0,-100.00,South,180,9.0,18.0,54,-99.99,,,-99.99,,2013-11-22 20:21:00,
2013-11-22 20:32:00,29.0,15.0,-100.00,South,180,9.0,18.0,54,-99.99,,,-99.99,,2013-11-22 20:32:00,
2013-11-22 20:42:00,29.0,15.0,-100.00,South,180,9.0,18.0,54,-99.99,,,-99.99,,2013-11-22 20:42:00,
2013-11-22 20:52:00,29.0,15.0,-100.00,South,190,10.0,16.0,54,-99.99,,,-99.99,,2013-11-22 20:52:00,
2013-11-22 21:02:00,29.0,15.0,-100.00,South,190,10.0,16.0,54,-99.99,,,-99.99,,2013-11-22 21:02:00,
2013-11-22 21:11:00,29.0,15.0,-100.00,South,190,10.0,16.0,54,-99.99,,,-99.99,,2013-11-22 21:11:00,
2013-11-22 21:22:00,29.0,14.0,-100.00,West,275,4.0,12.0,51,-99.99,,,-99.99,,2013-11-22 21:22:00,
2013-11-22 21:33:00,29.0,14.0,-100.00,West,275,4.0,12.0,51,-99.99,,,-99.99,,2013-11-22 21:33:00,
2013-11-22 21:43:00,29.0,14.0,-100.00,West,275,4.0,12.0,51,-99.99,,,-99.99,,2013-11-22 21:43:00,
2013-11-22 21:53:00,30.0,13.0,-100.00,WSW,245,2.0,11.0,49,-99.99,,,-99.99,,2013-11-22 21:53:00,
2013-11-22 22:03:00,30.0,13.0,-100.00,WSW,245,2.0,11.0,49,-99.99,,,-99.99,,2013-11-22 22:03:00,
2013-11-22 22:13:00,30.0,13.0,-100.00,WSW,245,2.0,11.0,49,-99.99,,,-99.99,,2013-11-22 22:13:00,
2013-11-22 22:23:00,30.0,11.0,-100.00,West,260,2.0,5.0,44,-99.99,,,-99.99,,2013-11-22 22:23:00,
2013-11-22 22:33:00,30.0,11.0,-100.00,West,260,2.0,5.0,44,-99.99,,,-99.99,,2013-11-22 22:33:00,
2013-11-22 22:42:00,30.0,11.0,-100.00,West,260,2.0,5.0,44,-99.99,,,-99.99,,2013-11-22 22:42:00,
2013-11-22 22:53:00,29.0,9.0,-100.00,South,170,4.0,7.0,42,-99.99,,,-99.99,,2013-11-22 22:53:00,
2013-11-22 23:02:00,29.0,9.0,-100.00,South,170,4.0,7.0,42,-99.99,,,-99.99,,2013-11-22 23:02:00,
2013-11-22 23:12:00,29.0,9.0,-100.00,South,170,4.0,7.0,42,-99.99,,,-99.99,,2013-11-22 23:12:00,
2013-11-22 23:22:00,28.0,8.0,-100.00,SSW,200,6.0,9.0,42,-99.99,,,-99.99,,2013-11-22 23:22:00,
2013-11-22 23:33:00,28.0,8.0,-100.00,SSW,200,6.0,9.0,42,-99.99,,,-99.99,,2013-11-22 23:33:00,
2013-11-22 23:42:00,28.0,8.0,-100.00,SSW,200,6.0,9.0,42,-99.99,,,-99.99,,2013-11-22 23:42:00,
2013-11-22 23:52:00,28.0,9.0,-100.00,SSW,210,3.0,8.0,43,-99.99,,,-99.99,,2013-11-22 23:52:00,